createdAt,value
2023-03-13T00:01:12.597Z,93.50
2023-03-13T00:03:39.345Z,93.50
2023-03-13T00:06:06.635Z,93.40
2023-03-13T00:08:33.505Z,93.40
2023-03-13T00:11:04.374Z,93.40
2023-03-13T00:13:31.227Z,93.40
2023-03-13T00:16:06.739Z,93.40
2023-03-13T00:18:33.909Z,93.40
2023-03-13T00:21:02.816Z,93.40
2023-03-13T00:23:30.154Z,93.40
2023-03-13T00:26:05.679Z,93.20
2023-03-13T00:28:34.289Z,93.20
2023-03-13T00:31:06.246Z,93.10
2023-03-13T00:33:37.459Z,93.10
2023-03-13T00:36:10.124Z,93.20
2023-03-13T00:38:37.054Z,93.20
2023-03-13T00:41:16.378Z,93.10
2023-03-13T00:43:44.373Z,93.00
2023-03-13T00:46:12.250Z,93.10
2023-03-13T00:48:39.004Z,93.10
2023-03-13T00:51:06.596Z,93.00
2023-03-13T00:53:33.516Z,93.00
2023-03-13T00:56:03.433Z,92.80
2023-03-13T00:58:33.528Z,92.90
2023-03-13T01:01:31.020Z,92.70
2023-03-13T01:04:01.160Z,92.80
2023-03-13T01:06:30.540Z,93.00
2023-03-13T01:08:57.689Z,92.90
2023-03-13T01:11:27.205Z,92.80
2023-03-13T01:14:02.178Z,92.80
2023-03-13T01:16:31.105Z,92.80
2023-03-13T01:19:01.852Z,92.80
2023-03-13T01:21:29.180Z,92.80
2023-03-13T01:23:56.870Z,93.20
2023-03-13T01:26:24.769Z,93.00
2023-03-13T01:28:51.837Z,92.80
2023-03-13T01:31:30.381Z,92.80
2023-03-13T01:33:58.892Z,92.60
2023-03-13T01:36:26.948Z,92.50
2023-03-13T01:38:55.944Z,92.50
2023-03-13T01:41:23.263Z,92.70
2023-03-13T01:43:50.711Z,92.40
2023-03-13T01:46:21.182Z,92.40
2023-03-13T01:49:07.393Z,92.40
2023-03-13T01:51:49.483Z,92.40
2023-03-13T01:54:39.912Z,92.50
2023-03-13T01:57:27.199Z,92.50
2023-03-13T02:00:00.384Z,91.80
2023-03-13T02:02:27.996Z,91.80
2023-03-13T02:05:01.297Z,91.90
2023-03-13T02:07:33.177Z,91.90
2023-03-13T02:10:01.001Z,92.10
2023-03-13T02:12:33.800Z,92.40
2023-03-13T02:15:04.709Z,92.20
2023-03-13T02:17:34.412Z,92.00
2023-03-13T02:20:01.158Z,91.90
2023-03-13T02:22:56.242Z,92.10
2023-03-13T02:25:25.810Z,92.20
2023-03-13T02:28:04.989Z,92.10
2023-03-13T02:30:32.477Z,92.10
2023-03-13T02:33:00.728Z,92.40
2023-03-13T02:35:28.089Z,92.20
2023-03-13T02:37:58.862Z,92.30
2023-03-13T02:40:33.264Z,92.30
2023-03-13T02:43:03.070Z,92.40
2023-03-13T02:45:29.827Z,92.70
2023-03-13T02:47:56.553Z,92.60
2023-03-13T02:50:24.229Z,92.60
2023-03-13T02:53:07.805Z,92.50
2023-03-13T02:55:54.629Z,92.40
2023-03-13T02:58:24.777Z,92.50
2023-03-13T03:00:53.111Z,92.40
2023-03-13T03:03:19.918Z,92.40
2023-03-13T03:05:46.615Z,92.40
2023-03-13T03:08:13.369Z,92.50
2023-03-13T03:10:40.129Z,92.70
2023-03-13T03:13:07.427Z,92.70
2023-03-13T03:15:34.212Z,92.70
2023-03-13T03:18:00.929Z,92.70
2023-03-13T03:20:27.664Z,92.90
2023-03-13T03:22:54.449Z,92.90
2023-03-13T03:25:21.192Z,93.10
2023-03-13T03:27:47.936Z,92.90
2023-03-13T03:30:15.117Z,93.10
2023-03-13T03:32:41.902Z,93.20
2023-03-13T03:35:08.868Z,93.10
2023-03-13T03:37:35.665Z,93.10
2023-03-13T03:40:02.370Z,93.30
2023-03-13T03:42:30.079Z,93.20
2023-03-13T03:44:56.843Z,93.10
2023-03-13T03:47:23.637Z,93.30
2023-03-13T03:49:50.395Z,93.20
2023-03-13T03:52:17.314Z,93.00
2023-03-13T03:54:44.069Z,93.00
2023-03-13T03:57:10.908Z,92.90
2023-03-13T03:59:37.685Z,92.90
2023-03-13T04:02:04.445Z,92.90
2023-03-13T04:04:31.186Z,92.80
2023-03-13T04:06:57.903Z,92.60
2023-03-13T04:09:24.631Z,92.60
2023-03-13T04:11:51.327Z,93.00
2023-03-13T04:14:18.152Z,92.00
2023-03-13T04:16:44.950Z,91.20
2023-03-13T04:19:11.796Z,91.10
2023-03-13T04:21:39.642Z,91.20
2023-03-13T04:24:06.732Z,91.20
2023-03-13T04:26:33.467Z,91.20
2023-03-13T04:29:00.231Z,91.40
2023-03-13T04:31:26.965Z,91.00
2023-03-13T04:33:53.676Z,90.90
2023-03-13T04:36:20.453Z,90.60
2023-03-13T04:38:47.237Z,90.60
2023-03-13T04:41:14.059Z,90.30
2023-03-13T04:43:40.794Z,90.60
2023-03-13T04:46:07.589Z,90.70
2023-03-13T04:48:34.338Z,90.50
2023-03-13T04:51:01.091Z,90.20
2023-03-13T04:53:27.803Z,90.20
2023-03-13T04:55:54.921Z,90.40
2023-03-13T04:58:21.646Z,90.30
2023-03-13T05:00:48.351Z,90.20
2023-03-13T05:03:15.126Z,90.10
2023-03-13T05:05:41.843Z,90.00
2023-03-13T05:08:10.764Z,90.10
2023-03-13T05:10:37.488Z,90.10
2023-03-13T05:13:04.379Z,89.80
2023-03-13T05:15:31.208Z,89.90
2023-03-13T05:17:58.053Z,89.90
2023-03-13T05:20:24.844Z,90.10
2023-03-13T05:22:51.677Z,90.30
2023-03-13T05:25:18.479Z,90.80
2023-03-13T05:27:45.762Z,90.50
2023-03-13T05:30:12.913Z,90.40
2023-03-13T05:32:39.649Z,90.40
2023-03-13T05:35:06.630Z,90.20
2023-03-13T05:37:33.437Z,89.90
2023-03-13T05:40:00.223Z,89.80
2023-03-13T05:42:27.073Z,89.70
2023-03-13T05:44:53.881Z,89.70
2023-03-13T05:47:20.677Z,89.40
2023-03-13T05:49:47.439Z,89.30
2023-03-13T05:52:14.140Z,89.00
2023-03-13T05:54:41.319Z,88.90
2023-03-13T05:57:08.953Z,88.90
2023-03-13T05:59:36.575Z,89.00
2023-03-13T06:02:03.357Z,88.80
2023-03-13T06:04:30.298Z,88.60
2023-03-13T06:06:57.229Z,88.60
2023-03-13T06:09:23.975Z,88.60
2023-03-13T06:11:50.724Z,88.70
2023-03-13T06:14:17.444Z,88.70
2023-03-13T06:16:44.176Z,88.60
2023-03-13T06:19:11.737Z,88.80
2023-03-13T06:21:39.042Z,88.70
2023-03-13T06:24:06.040Z,88.60
2023-03-13T06:26:32.778Z,88.70
2023-03-13T06:28:59.665Z,88.60
2023-03-13T06:31:26.417Z,88.60
2023-03-13T06:33:54.551Z,88.70
2023-03-13T06:36:25.333Z,88.90
2023-03-13T06:38:52.180Z,88.60
2023-03-13T06:41:19.293Z,88.80
2023-03-13T06:43:45.983Z,88.80
2023-03-13T06:46:19.809Z,88.90
2023-03-13T06:48:46.870Z,89.20
2023-03-13T06:51:14.876Z,89.40
2023-03-13T06:53:42.128Z,89.50
2023-03-13T06:56:09.804Z,89.50
2023-03-13T06:58:36.795Z,89.90
2023-03-13T07:01:12.131Z,89.60
2023-03-13T07:03:41.279Z,89.90
2023-03-13T07:06:09.127Z,89.70
2023-03-13T07:08:36.901Z,89.40
2023-03-13T07:11:06.358Z,89.60
2023-03-13T07:13:33.350Z,89.50
2023-03-13T07:16:06.679Z,89.20
2023-03-13T07:18:34.094Z,88.50
2023-03-13T07:21:05.157Z,88.60
2023-03-13T07:23:33.675Z,89.00
2023-03-13T07:26:26.838Z,87.90
2023-03-13T07:28:54.184Z,88.00
2023-03-13T07:31:23.850Z,88.70
2023-03-13T07:33:54.333Z,88.10
2023-03-13T07:36:21.207Z,88.40
2023-03-13T07:38:49.222Z,88.60
2023-03-13T07:41:16.385Z,88.40
2023-03-13T07:43:43.198Z,88.50
2023-03-13T07:46:12.808Z,88.10
2023-03-13T07:48:41.952Z,88.10
2023-03-13T07:51:16.457Z,87.80
2023-03-13T07:53:44.919Z,87.40
2023-03-13T07:56:13.541Z,87.70
2023-03-13T07:58:41.355Z,87.50
2023-03-13T08:01:10.115Z,87.20
2023-03-13T08:03:37.853Z,86.90
2023-03-13T08:06:14.342Z,87.20
2023-03-13T08:08:41.432Z,86.20
2023-03-13T08:11:10.831Z,86.50
2023-03-13T08:13:38.614Z,86.20
2023-03-13T08:16:10.199Z,86.10
2023-03-13T08:18:39.384Z,86.10
2023-03-13T08:21:08.641Z,86.30
2023-03-13T08:23:36.241Z,85.40
2023-03-13T08:26:10.437Z,85.80
2023-03-13T08:28:38.652Z,86.20
2023-03-13T08:31:11.145Z,85.60
2023-03-13T08:33:39.678Z,85.00
2023-03-13T08:36:14.086Z,85.10
2023-03-13T08:38:46.327Z,84.60
2023-03-13T08:41:15.697Z,83.00
2023-03-13T08:43:42.962Z,82.70
2023-03-13T08:46:09.777Z,82.40
2023-03-13T08:48:36.611Z,82.10
2023-03-13T08:51:09.518Z,81.50
2023-03-13T08:53:39.970Z,81.10
2023-03-13T08:56:08.389Z,79.40
2023-03-13T08:58:35.891Z,80.70
2023-03-13T09:01:14.516Z,81.10
2023-03-13T09:03:42.377Z,79.90
2023-03-13T09:06:10.935Z,78.80
2023-03-13T09:08:39.547Z,78.50
2023-03-13T09:11:12.397Z,78.90
2023-03-13T09:13:43.536Z,77.00
2023-03-13T09:16:13.523Z,79.10
2023-03-13T09:18:41.132Z,80.20
2023-03-13T09:21:11.815Z,79.00
2023-03-13T09:23:39.550Z,79.10
2023-03-13T09:26:06.989Z,78.10
2023-03-13T09:28:34.582Z,78.80
2023-03-13T09:31:08.903Z,79.90
2023-03-13T09:33:36.049Z,78.80
2023-03-13T09:36:03.538Z,79.40
2023-03-13T09:38:30.351Z,78.40
2023-03-13T09:41:11.611Z,79.10
2023-03-13T09:43:51.366Z,79.30
2023-03-13T09:46:36.865Z,79.40
2023-03-13T09:49:10.029Z,80.00
2023-03-13T09:51:43.535Z,79.20
2023-03-13T09:54:23.539Z,79.50
2023-03-13T09:57:16.515Z,79.00
2023-03-13T10:00:12.821Z,79.10
2023-03-13T10:02:40.226Z,79.10
2023-03-13T10:05:20.344Z,78.80
2023-03-13T10:07:48.648Z,77.50
2023-03-13T10:10:18.399Z,77.50
2023-03-13T10:12:51.441Z,78.30
2023-03-13T10:15:33.882Z,77.40
2023-03-13T10:18:13.974Z,77.80
2023-03-13T10:20:42.034Z,79.20
2023-03-13T10:23:21.621Z,78.10
2023-03-13T10:25:48.706Z,79.40
2023-03-13T10:28:20.138Z,79.10
2023-03-13T10:30:52.166Z,77.80
2023-03-13T10:33:23.712Z,78.10
2023-03-13T10:36:02.623Z,80.30
2023-03-13T10:38:32.927Z,78.20
2023-03-13T10:41:17.360Z,77.40
2023-03-13T10:44:14.569Z,77.10
2023-03-13T10:46:44.004Z,77.50
2023-03-13T10:49:15.831Z,76.30
2023-03-13T10:51:50.747Z,75.80
2023-03-13T10:54:31.022Z,76.80
2023-03-13T10:57:23.257Z,75.90
2023-03-13T10:59:51.641Z,77.70
2023-03-13T11:02:38.819Z,76.60
2023-03-13T11:05:24.333Z,76.10
2023-03-13T11:07:52.655Z,75.20
2023-03-13T11:10:22.247Z,75.30
2023-03-13T11:12:54.253Z,77.40
2023-03-13T11:15:35.992Z,77.20
2023-03-13T11:18:10.626Z,77.10
2023-03-13T11:20:39.984Z,77.10
2023-03-13T11:23:32.884Z,76.70
2023-03-13T11:26:13.664Z,77.00
2023-03-13T11:28:50.148Z,76.90
2023-03-13T11:31:39.155Z,76.30
2023-03-13T11:34:23.878Z,78.10
2023-03-13T11:37:02.507Z,76.20
2023-03-13T11:40:07.014Z,78.30
2023-03-13T11:42:52.023Z,77.00
2023-03-13T11:45:36.858Z,77.60
2023-03-13T11:48:40.112Z,76.60
2023-03-13T11:51:28.826Z,76.30
2023-03-13T11:54:05.291Z,77.90
2023-03-13T11:56:41.690Z,77.80
2023-03-13T11:59:08.358Z,77.30
2023-03-13T12:01:41.098Z,78.20
2023-03-13T12:04:28.004Z,77.50
2023-03-13T12:07:16.509Z,77.30
2023-03-13T12:09:51.751Z,77.90
2023-03-13T12:12:47.784Z,78.40
2023-03-13T12:15:15.044Z,77.80
2023-03-13T12:17:50.594Z,78.00
2023-03-13T12:20:37.929Z,77.40
2023-03-13T12:23:18.774Z,77.50
2023-03-13T12:25:52.417Z,76.80
2023-03-13T12:28:38.195Z,75.80
2023-03-13T12:31:21.969Z,76.30
2023-03-13T12:33:55.040Z,76.50
2023-03-13T12:36:51.441Z,76.00
2023-03-13T12:39:34.953Z,77.60
2023-03-13T12:42:39.940Z,76.00
2023-03-13T12:45:12.971Z,71.50
2023-03-13T12:47:54.198Z,68.90
2023-03-13T12:50:47.247Z,70.20
2023-03-13T12:53:42.568Z,70.10
2023-03-13T12:56:12.415Z,73.30
2023-03-13T12:58:45.320Z,72.50
2023-03-13T13:01:42.449Z,71.30
2023-03-13T13:04:19.958Z,72.10
2023-03-13T13:07:02.692Z,72.80
2023-03-13T13:09:41.251Z,71.90
2023-03-13T13:12:25.101Z,72.50
2023-03-13T13:14:52.049Z,73.30
2023-03-13T13:17:23.199Z,73.20
2023-03-13T13:19:50.424Z,73.20
2023-03-13T13:22:38.539Z,74.50
2023-03-13T13:25:11.068Z,74.00
2023-03-13T13:27:37.739Z,74.30
2023-03-13T13:30:19.689Z,74.50
2023-03-13T13:32:51.200Z,75.10
2023-03-13T13:35:28.423Z,73.70
2023-03-13T13:38:18.547Z,73.20
2023-03-13T13:41:11.874Z,72.60
2023-03-13T13:43:39.648Z,71.00
2023-03-13T13:46:29.229Z,72.20
2023-03-13T13:49:05.639Z,71.80
2023-03-13T13:51:53.518Z,71.90
2023-03-13T13:54:42.112Z,68.30
2023-03-13T13:57:18.610Z,68.00
2023-03-13T14:00:15.640Z,68.60
2023-03-13T14:02:52.142Z,70.70
2023-03-13T14:05:23.825Z,69.00
2023-03-13T14:07:56.567Z,69.70
2023-03-13T14:10:47.207Z,70.40
2023-03-13T14:13:21.986Z,70.50
2023-03-13T14:15:52.857Z,72.40
2023-03-13T14:18:28.477Z,70.10
2023-03-13T14:21:01.004Z,70.10
2023-03-13T14:23:42.199Z,68.60
2023-03-13T14:26:20.615Z,61.90
2023-03-13T14:28:56.837Z,58.50
2023-03-13T14:31:31.208Z,58.60
2023-03-13T14:34:00.339Z,59.30
2023-03-13T14:36:27.810Z,59.10
2023-03-13T14:39:00.044Z,60.40
2023-03-13T14:41:29.435Z,56.00
2023-03-13T14:44:06.250Z,57.30
2023-03-13T14:46:35.713Z,57.50
2023-03-13T14:49:08.541Z,55.90
2023-03-13T14:51:39.376Z,57.20
2023-03-13T14:54:23.428Z,58.40
2023-03-13T14:57:02.470Z,59.00
2023-03-13T14:59:29.548Z,57.30
2023-03-13T15:02:31.964Z,57.00
2023-03-13T15:05:07.280Z,57.10
2023-03-13T15:07:42.183Z,59.70
2023-03-13T15:10:31.407Z,62.00
2023-03-13T15:12:58.418Z,62.10
2023-03-13T15:15:25.631Z,63.50
2023-03-13T15:17:52.368Z,62.60
2023-03-13T15:20:19.242Z,62.70
2023-03-13T15:22:46.499Z,62.70
2023-03-13T15:25:19.561Z,63.40
2023-03-13T15:27:47.279Z,65.10
2023-03-13T15:30:18.868Z,67.10
2023-03-13T15:32:46.894Z,65.10
2023-03-13T15:35:29.797Z,65.20
2023-03-13T15:37:57.908Z,65.90
2023-03-13T15:40:25.600Z,67.40
2023-03-13T15:42:53.226Z,67.80
2023-03-13T15:45:21.720Z,69.00
2023-03-13T15:47:48.843Z,69.60
2023-03-13T15:50:18.888Z,69.10
2023-03-13T15:52:46.010Z,69.30
2023-03-13T15:55:12.805Z,68.90
2023-03-13T15:57:46.998Z,68.60
2023-03-13T16:00:25.997Z,68.20
2023-03-13T16:02:52.892Z,67.70
2023-03-13T16:05:20.033Z,67.40
2023-03-13T16:07:47.299Z,64.00
2023-03-13T16:10:26.056Z,60.60
2023-03-13T16:12:54.159Z,59.40
2023-03-13T16:15:21.554Z,60.60
2023-03-13T16:17:48.275Z,61.10
2023-03-13T16:20:21.581Z,60.10
2023-03-13T16:22:48.345Z,59.10
2023-03-13T16:25:15.704Z,60.10
2023-03-13T16:27:42.581Z,60.40
2023-03-13T16:30:27.622Z,60.70
2023-03-13T16:32:54.648Z,60.70
2023-03-13T16:35:21.961Z,62.30
2023-03-13T16:37:50.730Z,62.70
2023-03-13T16:40:24.519Z,64.00
2023-03-13T16:42:51.839Z,64.90
2023-03-13T16:45:18.735Z,65.50
2023-03-13T16:47:45.881Z,65.90
2023-03-13T16:50:29.120Z,66.70
2023-03-13T16:52:55.911Z,67.60
2023-03-13T16:55:28.697Z,67.60
2023-03-13T16:57:56.918Z,68.20
2023-03-13T17:00:25.819Z,68.00
2023-03-13T17:02:53.041Z,68.60
2023-03-13T17:05:20.035Z,69.30
2023-03-13T17:07:49.272Z,70.20
2023-03-13T17:10:28.631Z,70.30
2023-03-13T17:12:55.737Z,71.20
2023-03-13T17:15:23.461Z,72.00
2023-03-13T17:17:51.996Z,73.00
2023-03-13T17:20:24.919Z,72.90
2023-03-13T17:22:51.966Z,74.10
2023-03-13T17:25:18.867Z,74.10
2023-03-13T17:27:47.489Z,75.00
2023-03-13T17:30:23.538Z,75.60
2023-03-13T17:32:50.741Z,76.30
2023-03-13T17:35:18.464Z,76.20
2023-03-13T17:37:45.574Z,76.50
2023-03-13T17:40:15.765Z,76.80
2023-03-13T17:42:42.605Z,77.30
2023-03-13T17:45:10.589Z,76.90
2023-03-13T17:47:37.602Z,77.20
2023-03-13T17:50:27.375Z,77.30
2023-03-13T17:52:54.687Z,77.30
2023-03-13T17:55:22.714Z,76.90
2023-03-13T17:57:49.564Z,77.50
2023-03-13T18:00:31.850Z,77.70
2023-03-13T18:02:59.337Z,78.00
2023-03-13T18:05:27.074Z,78.30
2023-03-13T18:07:57.049Z,78.40
2023-03-13T18:10:27.204Z,77.70
2023-03-13T18:12:54.670Z,78.00
2023-03-13T18:15:23.456Z,79.20
2023-03-13T18:17:51.371Z,78.90
2023-03-13T18:20:24.021Z,78.40
2023-03-13T18:22:50.863Z,77.80
2023-03-13T18:25:17.738Z,77.30
2023-03-13T18:27:44.641Z,76.40
2023-03-13T18:30:22.124Z,77.40
2023-03-13T18:32:49.413Z,77.70
2023-03-13T18:35:16.895Z,78.20
2023-03-13T18:37:46.420Z,78.30
2023-03-13T18:40:25.136Z,77.70
2023-03-13T18:42:51.957Z,76.40
2023-03-13T18:45:24.658Z,76.40
2023-03-13T18:47:51.486Z,76.40
2023-03-13T18:50:26.137Z,76.10
2023-03-13T18:52:55.388Z,75.70
2023-03-13T18:55:25.907Z,76.10
2023-03-13T18:57:52.719Z,76.10
2023-03-13T19:00:24.492Z,76.00
2023-03-13T19:02:51.823Z,76.30
2023-03-13T19:05:19.275Z,77.30
2023-03-13T19:07:46.959Z,77.70
2023-03-13T19:10:26.608Z,77.70
2023-03-13T19:12:54.969Z,76.80
2023-03-13T19:15:24.478Z,76.40
2023-03-13T19:17:51.803Z,76.10
2023-03-13T19:20:20.852Z,76.00
2023-03-13T19:22:48.041Z,76.50
2023-03-13T19:25:17.185Z,76.80
2023-03-13T19:27:44.395Z,76.50
2023-03-13T19:30:22.527Z,77.70
2023-03-13T19:32:50.117Z,77.90
2023-03-13T19:35:18.836Z,78.00
2023-03-13T19:37:46.115Z,78.80
2023-03-13T19:40:21.745Z,78.80
2023-03-13T19:42:48.557Z,78.10
2023-03-13T19:45:17.332Z,78.50
2023-03-13T19:47:44.621Z,79.60
2023-03-13T19:50:23.423Z,80.30
2023-03-13T19:52:50.318Z,80.50
2023-03-13T19:55:17.285Z,78.60
2023-03-13T19:57:44.215Z,78.30
2023-03-13T20:00:22.312Z,77.90
2023-03-13T20:02:49.789Z,78.00
2023-03-13T20:05:16.768Z,78.20
2023-03-13T20:07:43.613Z,78.70
2023-03-13T20:10:10.927Z,77.60
2023-03-13T20:12:37.715Z,78.00
2023-03-13T20:15:05.170Z,76.80
2023-03-13T20:17:32.510Z,76.50
2023-03-13T20:19:59.245Z,78.20
2023-03-13T20:22:26.073Z,78.20
2023-03-13T20:24:55.741Z,78.20
2023-03-13T20:27:22.488Z,77.10
2023-03-13T20:29:49.303Z,76.70
2023-03-13T20:32:16.323Z,76.00
2023-03-13T20:34:43.088Z,76.20
2023-03-13T20:37:09.879Z,77.70
2023-03-13T20:39:36.644Z,77.90
2023-03-13T20:42:03.535Z,76.90
2023-03-13T20:44:30.288Z,75.40
2023-03-13T20:46:57.008Z,75.00
2023-03-13T20:49:24.013Z,72.80
2023-03-13T20:51:50.721Z,72.30
2023-03-13T20:54:17.482Z,70.50
2023-03-13T20:56:44.215Z,69.30
2023-03-13T20:59:10.913Z,69.30
2023-03-13T21:01:38.224Z,68.30
2023-03-13T21:04:05.476Z,66.80
2023-03-13T21:06:32.569Z,66.40
2023-03-13T21:08:59.320Z,65.10
2023-03-13T21:11:26.060Z,63.30
2023-03-13T21:13:52.751Z,64.00
2023-03-13T21:16:20.001Z,64.40
2023-03-13T21:18:47.411Z,62.70
2023-03-13T21:21:18.898Z,64.00
2023-03-13T21:23:46.390Z,64.70
2023-03-13T21:26:15.916Z,63.60
2023-03-13T21:28:42.704Z,64.80
2023-03-13T21:31:17.217Z,70.50
2023-03-13T21:33:45.847Z,72.70
2023-03-13T21:36:14.717Z,73.40
2023-03-13T21:38:41.981Z,73.90
2023-03-13T21:41:14.271Z,74.20
2023-03-13T21:43:42.060Z,75.10
2023-03-13T21:46:10.738Z,75.70
2023-03-13T21:48:41.820Z,76.10
2023-03-13T21:51:09.892Z,76.40
2023-03-13T21:53:37.457Z,77.00
2023-03-13T21:56:05.162Z,76.40
2023-03-13T21:58:31.903Z,76.80
2023-03-13T22:00:59.325Z,76.80
2023-03-13T22:03:29.185Z,76.80
2023-03-13T22:05:56.075Z,77.00
2023-03-13T22:08:22.862Z,77.50
2023-03-13T22:10:51.194Z,77.90
2023-03-13T22:13:18.335Z,77.90
2023-03-13T22:15:46.461Z,77.50
2023-03-13T22:18:14.931Z,77.20
2023-03-13T22:20:42.447Z,77.30
2023-03-13T22:23:11.104Z,77.80
2023-03-13T22:25:40.239Z,78.30
2023-03-13T22:28:07.071Z,78.70
2023-03-13T22:30:34.007Z,79.70
2023-03-13T22:33:00.763Z,80.60
2023-03-13T22:35:27.537Z,82.60
2023-03-13T22:37:54.306Z,83.90
2023-03-13T22:40:21.087Z,85.90
2023-03-13T22:42:48.276Z,87.10
2023-03-13T22:45:15.968Z,88.80
2023-03-13T22:47:42.709Z,90.20
2023-03-13T22:50:11.015Z,91.00
2023-03-13T22:52:38.504Z,91.40
2023-03-13T22:55:05.504Z,91.60
2023-03-13T22:57:32.362Z,91.60
2023-03-13T23:00:00.123Z,91.60
2023-03-13T23:02:28.273Z,91.70
2023-03-13T23:04:57.842Z,91.80
2023-03-13T23:07:28.336Z,92.10
2023-03-13T23:09:55.930Z,92.20
2023-03-13T23:12:24.260Z,92.20
2023-03-13T23:14:55.689Z,92.30
2023-03-13T23:17:22.465Z,92.20
2023-03-13T23:19:49.308Z,92.10
2023-03-13T23:22:18.035Z,91.70
2023-03-13T23:24:45.058Z,91.60
2023-03-13T23:27:11.994Z,91.70
2023-03-13T23:29:39.270Z,91.70
2023-03-13T23:32:06.276Z,91.00
2023-03-13T23:34:35.307Z,90.90
2023-03-13T23:37:02.016Z,91.00
2023-03-13T23:39:29.170Z,91.20
2023-03-13T23:41:56.232Z,91.30
2023-03-13T23:44:23.042Z,91.50
2023-03-13T23:46:49.773Z,91.90
2023-03-13T23:49:16.503Z,92.10
2023-03-13T23:51:43.188Z,92.30
2023-03-13T23:54:09.884Z,92.50
2023-03-13T23:56:36.564Z,92.60
2023-03-13T23:59:03.436Z,92.70
